createdAt,value
2017-08-19T00:00:56.687Z,99.99
2017-08-19T00:01:56.681Z,99.99
2017-08-19T00:02:56.676Z,99.99
2017-08-19T00:03:56.369Z,99.99
2017-08-19T00:04:56.348Z,99.99
2017-08-19T00:05:56.662Z,99.99
2017-08-19T00:06:56.666Z,99.99
2017-08-19T00:07:56.654Z,99.99
2017-08-19T00:08:56.654Z,99.99
2017-08-19T00:09:56.648Z,99.99
2017-08-19T00:10:56.645Z,99.99
2017-08-19T00:11:56.639Z,99.99
2017-08-19T00:12:56.648Z,99.99
2017-08-19T00:13:56.631Z,99.99
2017-08-19T00:14:56.640Z,99.99
2017-08-19T00:15:56.623Z,99.99
2017-08-19T00:16:56.301Z,99.99
2017-08-19T00:17:56.616Z,99.99
2017-08-19T00:18:56.634Z,99.99
2017-08-19T00:19:56.317Z,99.99
2017-08-19T00:20:56.485Z,99.99
2017-08-19T00:21:56.600Z,99.99
2017-08-19T00:22:56.593Z,99.99
2017-08-19T00:23:56.589Z,99.99
2017-08-19T00:24:56.264Z,99.99
2017-08-19T00:25:56.593Z,99.99
2017-08-19T00:26:56.574Z,99.99
2017-08-19T00:27:56.572Z,99.99
2017-08-19T00:28:56.567Z,99.99
2017-08-19T00:29:56.562Z,99.99
2017-08-19T00:30:56.242Z,99.99
2017-08-19T00:31:56.232Z,99.99
2017-08-19T00:32:56.554Z,99.99
2017-08-19T00:33:56.241Z,99.99
2017-08-19T00:34:56.540Z,99.99
2017-08-19T00:35:56.536Z,99.99
2017-08-19T00:36:56.211Z,99.99
2017-08-19T00:37:56.207Z,99.99
2017-08-19T00:38:56.523Z,99.99
2017-08-19T00:39:56.230Z,99.99
2017-08-19T00:40:56.515Z,99.99
2017-08-19T00:41:56.510Z,99.99
2017-08-19T00:42:56.186Z,99.99
2017-08-19T00:43:56.508Z,99.99
2017-08-19T00:44:56.196Z,99.99
2017-08-19T00:45:56.491Z,99.99
2017-08-19T00:46:56.488Z,99.99
2017-08-19T00:47:56.489Z,99.99
2017-08-19T00:48:56.494Z,99.99
2017-08-19T00:49:56.481Z,99.99
2017-08-19T00:50:56.470Z,99.99
2017-08-19T00:51:56.466Z,99.99
2017-08-19T00:52:56.140Z,99.99
2017-08-19T00:53:56.456Z,99.99
2017-08-19T00:54:56.131Z,99.99
2017-08-19T00:55:56.450Z,99.99
2017-08-19T00:56:56.126Z,99.99
2017-08-19T00:57:56.438Z,99.99
2017-08-19T00:58:56.114Z,99.99
2017-08-19T00:59:56.429Z,99.99
2017-08-19T01:00:56.432Z,99.99
2017-08-19T01:01:56.420Z,99.99
2017-08-19T01:02:56.414Z,99.99
2017-08-19T01:03:56.412Z,99.99
2017-08-19T01:04:56.086Z,99.99
2017-08-19T01:05:56.404Z,99.99
2017-08-19T01:06:56.092Z,99.99
2017-08-19T01:07:56.073Z,99.99
2017-08-19T01:08:56.066Z,99.99
2017-08-19T01:09:56.384Z,99.99
2017-08-19T01:10:56.060Z,99.99
2017-08-19T01:11:56.391Z,99.99
2017-08-19T01:12:56.060Z,99.99
2017-08-19T01:13:56.366Z,99.99
2017-08-19T01:14:56.360Z,99.99
2017-08-19T01:15:56.035Z,99.99
2017-08-19T01:16:56.354Z,99.99
2017-08-19T01:17:56.026Z,99.99
2017-08-19T01:18:56.020Z,99.99
2017-08-19T01:19:56.339Z,99.99
2017-08-19T01:20:56.334Z,99.99
2017-08-19T01:21:56.362Z,99.99
2017-08-19T01:22:56.339Z,99.99
2017-08-19T01:23:56.320Z,99.99
2017-08-19T01:24:55.996Z,99.99
2017-08-19T01:25:56.310Z,99.99
2017-08-19T01:26:56.313Z,99.99
2017-08-19T01:27:56.302Z,99.99
2017-08-19T01:28:56.296Z,99.99
2017-08-19T01:29:56.295Z,99.99
2017-08-19T01:30:56.289Z,99.99
2017-08-19T01:31:56.294Z,99.99
2017-08-19T01:32:55.956Z,99.99
2017-08-19T01:33:56.296Z,99.99
2017-08-19T01:34:56.268Z,99.99
2017-08-19T01:35:55.943Z,99.99
2017-08-19T01:36:56.274Z,99.99
2017-08-19T01:37:56.254Z,99.99
2017-08-19T01:38:55.926Z,99.99
2017-08-19T01:39:56.244Z,99.99
2017-08-19T01:40:56.240Z,99.99
2017-08-19T01:41:55.913Z,99.99
2017-08-19T01:42:55.908Z,99.99
2017-08-19T01:43:56.223Z,99.99
2017-08-19T01:44:55.930Z,99.99
2017-08-19T01:45:56.219Z,99.99
2017-08-19T01:46:56.012Z,99.99
2017-08-19T01:47:55.883Z,99.99
2017-08-19T01:48:56.204Z,99.99
2017-08-19T01:49:56.194Z,99.99
2017-08-19T01:50:56.190Z,99.99
2017-08-19T01:51:56.204Z,99.99
2017-08-19T01:52:56.182Z,99.99
2017-08-19T01:53:56.175Z,99.99
2017-08-19T01:54:56.172Z,99.99
2017-08-19T01:55:56.166Z,99.99
2017-08-19T01:56:56.161Z,99.99
2017-08-19T01:57:55.832Z,99.99
2017-08-19T01:58:56.150Z,99.99
2017-08-19T01:59:56.145Z,99.99
2017-08-19T02:00:56.140Z,99.99
2017-08-19T02:01:56.136Z,99.99
2017-08-19T02:02:56.132Z,99.99
2017-08-19T02:03:56.126Z,99.99
2017-08-19T02:04:56.124Z,99.99
2017-08-19T02:05:55.811Z,99.99
2017-08-19T02:06:55.789Z,99.99
2017-08-19T02:07:56.117Z,99.99
2017-08-19T02:08:56.099Z,99.99
2017-08-19T02:09:56.093Z,99.99
2017-08-19T02:10:56.087Z,99.99
2017-08-19T02:11:55.760Z,99.99
2017-08-19T02:12:55.754Z,99.99
2017-08-19T02:13:56.090Z,99.99
2017-08-19T02:14:56.069Z,99.99
2017-08-19T02:15:56.063Z,99.99
2017-08-19T02:16:56.082Z,99.99
2017-08-19T02:17:55.745Z,99.99
2017-08-19T02:18:56.059Z,99.99
2017-08-19T02:19:56.043Z,99.99
2017-08-19T02:20:55.714Z,99.99
2017-08-19T02:21:56.030Z,99.99
2017-08-19T02:22:56.041Z,99.99
2017-08-19T02:23:56.020Z,99.99
2017-08-19T02:24:55.694Z,99.99
2017-08-19T02:25:56.008Z,99.99
2017-08-19T02:26:55.695Z,99.99
2017-08-19T02:27:55.998Z,99.99
2017-08-19T02:28:56.008Z,99.99
2017-08-19T02:29:55.989Z,99.99
2017-08-19T02:30:55.663Z,99.99
2017-08-19T02:31:55.978Z,99.99
2017-08-19T02:32:55.978Z,99.99
2017-08-19T02:33:55.968Z,99.99
2017-08-19T02:34:55.962Z,99.99
2017-08-19T02:35:55.979Z,99.99
2017-08-19T02:36:55.954Z,99.99
2017-08-19T02:37:55.626Z,99.99
2017-08-19T02:38:55.941Z,99.99
2017-08-19T02:39:55.934Z,99.99
2017-08-19T02:40:55.943Z,99.99
2017-08-19T02:41:55.922Z,99.99
2017-08-19T02:42:55.932Z,99.99
2017-08-19T02:43:55.919Z,99.99
2017-08-19T02:44:55.911Z,99.99
2017-08-19T02:45:55.922Z,99.99
2017-08-19T02:46:55.898Z,99.99
2017-08-19T02:47:55.896Z,99.99
2017-08-19T02:48:55.584Z,99.99
2017-08-19T02:49:55.884Z,99.99
2017-08-19T02:50:55.556Z,99.99
2017-08-19T02:51:55.873Z,99.99
2017-08-19T02:52:55.865Z,99.99
2017-08-19T02:53:55.889Z,99.99
2017-08-19T02:54:55.855Z,99.99
2017-08-19T02:55:55.851Z,99.99
2017-08-19T02:56:55.872Z,99.99
2017-08-19T02:57:55.839Z,99.99
2017-08-19T02:58:55.549Z,99.99
2017-08-19T02:59:55.836Z,99.99
2017-08-19T03:00:55.826Z,99.99
2017-08-19T03:01:55.819Z,99.99
2017-08-19T03:02:55.815Z,99.99
2017-08-19T03:03:55.810Z,99.99
2017-08-19T03:04:55.483Z,99.99
2017-08-19T03:05:55.810Z,99.99
2017-08-19T03:06:55.810Z,99.99
2017-08-19T03:07:55.787Z,99.99
2017-08-19T03:08:55.780Z,99.99
2017-08-19T03:09:55.777Z,99.99
2017-08-19T03:10:55.466Z,99.99
2017-08-19T03:11:55.766Z,99.99
2017-08-19T03:12:55.759Z,99.99
2017-08-19T03:13:55.768Z,99.99
2017-08-19T03:14:55.749Z,99.99
2017-08-19T03:15:55.423Z,99.99
2017-08-19T03:16:55.416Z,99.99
2017-08-19T03:17:55.413Z,99.99
2017-08-19T03:18:55.405Z,99.99
2017-08-19T03:19:55.721Z,99.99
2017-08-19T03:20:55.734Z,99.99
2017-08-19T03:21:55.709Z,99.99
2017-08-19T03:22:55.721Z,99.99
2017-08-19T03:23:55.701Z,99.99
2017-08-19T03:24:55.703Z,99.99
2017-08-19T03:25:55.373Z,99.99
2017-08-19T03:26:55.685Z,99.99
2017-08-19T03:27:55.687Z,99.99
2017-08-19T03:28:55.701Z,99.99
2017-08-19T03:29:55.671Z,99.99
2017-08-19T03:30:55.679Z,99.99
2017-08-19T03:31:55.659Z,99.99
2017-08-19T03:32:55.654Z,99.99
2017-08-19T03:33:55.327Z,99.99
2017-08-19T03:34:55.642Z,99.99
2017-08-19T03:35:55.638Z,99.99
2017-08-19T03:36:55.631Z,99.99
2017-08-19T03:37:55.625Z,99.99
2017-08-19T03:38:55.635Z,99.99
2017-08-19T03:39:55.619Z,99.99
2017-08-19T03:40:55.609Z,99.99
2017-08-19T03:41:55.604Z,99.99
2017-08-19T03:42:55.639Z,99.99
2017-08-19T03:43:55.595Z,99.99
2017-08-19T03:44:55.591Z,99.99
2017-08-19T03:45:55.265Z,99.99
2017-08-19T03:46:55.263Z,99.99
2017-08-19T03:47:55.275Z,99.99
2017-08-19T03:48:55.569Z,99.99
2017-08-19T03:49:55.243Z,99.99
2017-08-19T03:50:55.558Z,99.99
2017-08-19T03:51:55.553Z,99.99
2017-08-19T03:52:55.548Z,99.99
2017-08-19T03:53:55.548Z,99.99
2017-08-19T03:54:55.535Z,99.99
2017-08-19T03:55:55.530Z,99.99
2017-08-19T03:56:55.526Z,99.99
2017-08-19T03:57:55.522Z,99.99
2017-08-19T03:58:55.515Z,99.99
2017-08-19T03:59:55.513Z,99.99
2017-08-19T04:00:55.510Z,99.99
2017-08-19T04:01:55.510Z,99.99
2017-08-19T04:02:55.495Z,99.99
2017-08-19T04:03:55.170Z,99.99
2017-08-19T04:04:55.486Z,99.99
2017-08-19T04:05:55.495Z,99.99
2017-08-19T04:06:55.477Z,99.99
2017-08-19T04:07:55.469Z,99.99
2017-08-19T04:08:55.463Z,99.99
2017-08-19T04:09:55.461Z,99.99
2017-08-19T04:10:55.450Z,99.99
2017-08-19T04:11:55.126Z,99.99
2017-08-19T04:12:55.439Z,99.99
2017-08-19T04:13:55.455Z,99.99
2017-08-19T04:14:55.108Z,99.99
2017-08-19T04:15:55.441Z,99.99
2017-08-19T04:16:55.098Z,99.99
2017-08-19T04:17:55.413Z,99.99
2017-08-19T04:18:55.107Z,99.99
2017-08-19T04:19:55.403Z,99.99
2017-08-19T04:20:55.397Z,99.99
2017-08-19T04:21:55.406Z,99.99
2017-08-19T04:22:55.389Z,99.99
2017-08-19T04:23:55.396Z,99.99
2017-08-19T04:24:55.381Z,99.99
2017-08-19T04:25:55.387Z,99.99
2017-08-19T04:26:55.365Z,99.99
2017-08-19T04:27:55.380Z,99.99
2017-08-19T04:28:55.378Z,99.99
2017-08-19T04:29:55.347Z,99.99
2017-08-19T04:30:55.345Z,99.99
2017-08-19T04:31:55.343Z,99.99
2017-08-19T04:32:55.353Z,99.99
2017-08-19T04:33:55.332Z,99.99
2017-08-19T04:34:55.338Z,99.99
2017-08-19T04:35:55.317Z,99.99
2017-08-19T04:36:55.011Z,99.99
2017-08-19T04:37:55.306Z,99.99
2017-08-19T04:38:54.981Z,99.99
2017-08-19T04:39:55.293Z,99.99
2017-08-19T04:40:54.966Z,99.99
2017-08-19T04:41:54.961Z,99.99
2017-08-19T04:42:55.276Z,99.99
2017-08-19T04:43:54.953Z,99.99
2017-08-19T04:44:55.272Z,99.99
2017-08-19T04:45:55.265Z,99.99
2017-08-19T04:46:54.951Z,99.99
2017-08-19T04:47:55.251Z,99.99
2017-08-19T04:48:54.924Z,99.99
2017-08-19T04:49:55.248Z,99.99
2017-08-19T04:50:55.235Z,99.99
2017-08-19T04:51:54.910Z,99.99
2017-08-19T04:52:55.232Z,99.99
2017-08-19T04:53:54.897Z,99.99
2017-08-19T04:54:55.213Z,99.99
2017-08-19T04:55:55.225Z,99.99
2017-08-19T04:56:55.214Z,99.99
2017-08-19T04:57:55.195Z,99.99
2017-08-19T04:58:55.189Z,99.99
2017-08-19T04:59:54.863Z,99.99
2017-08-19T05:00:55.188Z,99.99
2017-08-19T05:01:55.177Z,99.99
2017-08-19T05:02:55.171Z,99.99
2017-08-19T05:03:55.163Z,99.99
2017-08-19T05:04:55.167Z,99.99
2017-08-19T05:05:55.166Z,99.99
2017-08-19T05:06:55.155Z,99.99
2017-08-19T05:07:55.143Z,99.99
2017-08-19T05:08:55.139Z,99.99
2017-08-19T05:09:54.811Z,99.99
2017-08-19T05:10:55.128Z,99.99
2017-08-19T05:11:55.120Z,99.99
2017-08-19T05:12:55.128Z,99.99
2017-08-19T05:13:55.111Z,99.99
2017-08-19T05:14:55.108Z,99.99
2017-08-19T05:15:55.118Z,99.99
2017-08-19T05:16:55.104Z,99.99
2017-08-19T05:17:54.794Z,99.99
2017-08-19T05:18:55.109Z,99.99
2017-08-19T05:19:55.099Z,99.99
2017-08-19T05:20:55.074Z,99.99
2017-08-19T05:21:55.123Z,99.99
2017-08-19T05:22:55.084Z,99.99
2017-08-19T05:23:54.736Z,99.99
2017-08-19T05:24:54.729Z,99.99
2017-08-19T05:25:54.735Z,99.99
2017-08-19T05:26:55.050Z,99.99
2017-08-19T05:27:54.717Z,99.99
2017-08-19T05:28:55.033Z,99.99
2017-08-19T05:29:55.046Z,99.99
2017-08-19T05:30:55.034Z,99.99
2017-08-19T05:31:55.016Z,99.99
2017-08-19T05:32:55.013Z,99.99
2017-08-19T05:33:54.716Z,99.99
2017-08-19T05:34:55.001Z,99.99
2017-08-19T05:35:54.994Z,99.99
2017-08-19T05:36:54.990Z,99.99
2017-08-19T05:37:54.989Z,99.99
2017-08-19T05:38:55.010Z,99.99
2017-08-19T05:39:54.656Z,99.99
2017-08-19T05:40:54.969Z,99.99
2017-08-19T05:41:54.970Z,99.99
2017-08-19T05:42:54.960Z,99.99
2017-08-19T05:43:54.634Z,99.99
2017-08-19T05:44:54.959Z,99.99
2017-08-19T05:45:54.622Z,99.99
2017-08-19T05:46:54.619Z,99.99
2017-08-19T05:47:54.622Z,99.99
2017-08-19T05:48:54.932Z,99.99
2017-08-19T05:49:54.924Z,99.99
2017-08-19T05:50:54.920Z,99.99
2017-08-19T05:51:54.914Z,99.99
2017-08-19T05:52:54.619Z,99.99
2017-08-19T05:53:54.902Z,99.99
2017-08-19T05:54:54.903Z,99.99
2017-08-19T05:55:54.908Z,99.99
2017-08-19T05:56:54.888Z,99.99
2017-08-19T05:57:54.885Z,99.99
2017-08-19T05:58:54.881Z,99.99
2017-08-19T05:59:54.875Z,99.99
2017-08-19T06:00:54.552Z,99.99
2017-08-19T06:01:54.862Z,99.99
2017-08-19T06:02:54.860Z,99.99
2017-08-19T06:03:54.852Z,99.99
2017-08-19T06:04:54.861Z,99.99
2017-08-19T06:05:54.525Z,99.99
2017-08-19T06:06:54.592Z,99.99
2017-08-19T06:07:54.837Z,99.99
2017-08-19T06:08:54.831Z,99.99
2017-08-19T06:09:54.948Z,99.99
2017-08-19T06:10:54.500Z,99.99
2017-08-19T06:11:54.822Z,99.99
2017-08-19T06:12:54.850Z,99.99
2017-08-19T06:13:54.806Z,99.99
2017-08-19T06:14:54.802Z,99.99
2017-08-19T06:15:54.811Z,99.99
2017-08-19T06:16:54.472Z,99.99
2017-08-19T06:17:54.789Z,99.99
2017-08-19T06:18:54.786Z,99.99
2017-08-19T06:19:54.459Z,99.99
2017-08-19T06:20:54.776Z,99.99
2017-08-19T06:21:54.769Z,99.99
2017-08-19T06:22:54.770Z,99.99
2017-08-19T06:23:54.441Z,99.99
2017-08-19T06:24:54.758Z,99.99
2017-08-19T06:25:54.755Z,99.99
2017-08-19T06:26:54.748Z,99.99
2017-08-19T06:27:54.742Z,99.99
2017-08-19T06:28:54.737Z,99.99
2017-08-19T06:29:54.737Z,99.99
2017-08-19T06:30:54.729Z,99.99
2017-08-19T06:31:54.404Z,99.99
2017-08-19T06:32:54.724Z,99.99
2017-08-19T06:33:54.394Z,99.99
2017-08-19T06:34:54.719Z,99.99
2017-08-19T06:35:54.709Z,99.99
2017-08-19T06:36:54.702Z,99.99
2017-08-19T06:37:54.699Z,99.99
2017-08-19T06:38:54.374Z,99.99
2017-08-19T06:39:54.689Z,99.99
2017-08-19T06:40:54.688Z,99.99
2017-08-19T06:41:54.685Z,99.99
2017-08-19T06:42:54.366Z,99.99
2017-08-19T06:43:54.363Z,99.99
2017-08-19T06:44:54.670Z,99.99
2017-08-19T06:45:54.664Z,99.99
2017-08-19T06:46:54.659Z,99.99
2017-08-19T06:47:54.657Z,99.99
2017-08-19T06:48:54.652Z,99.99
2017-08-19T06:49:54.650Z,99.99
2017-08-19T06:50:54.643Z,99.99
2017-08-19T06:51:54.663Z,99.99
2017-08-19T06:52:54.314Z,99.99
2017-08-19T06:53:54.632Z,99.99
2017-08-19T06:54:54.634Z,99.99
2017-08-19T06:55:54.627Z,99.99
2017-08-19T06:56:54.630Z,99.99
2017-08-19T06:57:54.617Z,99.99
2017-08-19T06:58:54.612Z,99.99
2017-08-19T06:59:54.288Z,99.99
2017-08-19T07:00:54.624Z,99.99
2017-08-19T07:01:54.603Z,99.99
2017-08-19T07:02:54.277Z,99.99
2017-08-19T07:03:54.596Z,99.99
2017-08-19T07:04:54.589Z,99.99
2017-08-19T07:05:54.587Z,99.99
2017-08-19T07:06:54.584Z,99.99
2017-08-19T07:07:54.581Z,99.99
2017-08-19T07:08:54.578Z,99.99
2017-08-19T07:09:54.573Z,99.99
2017-08-19T07:10:54.248Z,99.99
2017-08-19T07:11:54.564Z,99.99
2017-08-19T07:12:54.255Z,99.99
2017-08-19T07:13:54.581Z,99.99
2017-08-19T07:14:54.557Z,99.99
2017-08-19T07:15:54.232Z,99.99
2017-08-19T07:16:54.550Z,99.99
2017-08-19T07:17:54.544Z,99.99
2017-08-19T07:18:54.556Z,99.99
2017-08-19T07:19:54.539Z,99.99
2017-08-19T07:20:54.214Z,99.99
2017-08-19T07:21:54.531Z,99.99
2017-08-19T07:22:54.547Z,99.99
2017-08-19T07:23:54.545Z,99.99
2017-08-19T07:24:54.221Z,99.99
2017-08-19T07:25:54.518Z,98.05
2017-08-19T07:26:54.515Z,94.5
2017-08-19T07:27:54.511Z,97.9
2017-08-19T07:28:54.533Z,95.94
2017-08-19T07:29:54.507Z,96.56
2017-08-19T07:30:54.502Z,94.93
2017-08-19T07:31:54.180Z,87.1
2017-08-19T07:32:54.503Z,89.16
2017-08-19T07:33:54.494Z,86.9
2017-08-19T07:34:54.499Z,82.52
2017-08-19T07:35:54.496Z,82.37
2017-08-19T07:36:54.497Z,78.85
2017-08-19T07:37:54.507Z,78.21
2017-08-19T07:38:54.483Z,80.33
2017-08-19T07:39:54.497Z,77.34
2017-08-19T07:40:54.160Z,74.16
2017-08-19T07:41:54.479Z,74.41
2017-08-19T07:42:54.477Z,76.59
2017-08-19T07:43:54.477Z,76.59
2017-08-19T07:44:54.696Z,77.33
2017-08-19T07:45:54.151Z,79.63
2017-08-19T07:46:54.470Z,80.3
2017-08-19T07:47:54.472Z,80.6
2017-08-19T07:48:54.468Z,79.15
2017-08-19T07:49:54.469Z,78.96
2017-08-19T07:50:54.143Z,80.46
2017-08-19T07:51:54.485Z,79.21
2017-08-19T07:52:54.462Z,76.29
2017-08-19T07:53:54.140Z,77.34
2017-08-19T07:54:54.458Z,77.21
2017-08-19T07:55:54.463Z,77.31
2017-08-19T07:56:54.136Z,77.69
2017-08-19T07:57:54.464Z,81.34
2017-08-19T07:58:54.455Z,78.84
2017-08-19T07:59:54.464Z,83.26
2017-08-19T08:00:54.451Z,80.28
2017-08-19T08:01:54.452Z,78.55
2017-08-19T08:02:54.446Z,78.27
2017-08-19T08:03:54.466Z,76.73
2017-08-19T08:04:54.465Z,77.59
2017-08-19T08:05:54.123Z,79.52
2017-08-19T08:06:54.442Z,78.27
2017-08-19T08:07:54.442Z,79.99
2017-08-19T08:08:54.439Z,81.92
2017-08-19T08:09:54.118Z,80.86
2017-08-19T08:10:54.436Z,79.36
2017-08-19T08:11:54.437Z,79.07
2017-08-19T08:12:54.435Z,78.02
2017-08-19T08:13:54.111Z,77.31
2017-08-19T08:14:54.443Z,75.67
2017-08-19T08:15:54.430Z,75.87
2017-08-19T08:16:54.430Z,75.77
2017-08-19T08:17:54.426Z,77.46
2017-08-19T08:18:54.105Z,77.94
2017-08-19T08:19:54.426Z,74.29
2017-08-19T08:20:54.103Z,76.12
2017-08-19T08:21:54.426Z,76.56
2017-08-19T08:22:54.419Z,78.03
2017-08-19T08:23:54.420Z,78.77
2017-08-19T08:24:54.417Z,79.05
2017-08-19T08:25:54.417Z,79.91
2017-08-19T08:26:54.416Z,81.54
2017-08-19T08:27:54.418Z,81.35
2017-08-19T08:28:54.438Z,79.82
2017-08-19T08:29:54.410Z,80.11
2017-08-19T08:30:54.090Z,80.3
2017-08-19T08:31:54.085Z,81.07
2017-08-19T08:32:54.405Z,81.35
2017-08-19T08:33:54.401Z,81.35
2017-08-19T08:34:54.420Z,81.7
2017-08-19T08:35:54.398Z,82.75
2017-08-19T08:36:54.397Z,82.27
2017-08-19T08:37:54.393Z,83.14
2017-08-19T08:38:54.393Z,84.63
2017-08-19T08:39:54.389Z,81.95
2017-08-19T08:40:54.077Z,82.71
2017-08-19T08:41:54.407Z,81.13
2017-08-19T08:42:54.380Z,82.86
2017-08-19T08:43:54.394Z,82.29
2017-08-19T08:44:54.376Z,83.44
2017-08-19T08:45:54.052Z,85.16
2017-08-19T08:46:54.050Z,85.35
2017-08-19T08:47:54.050Z,84.35
2017-08-19T08:48:54.364Z,86.17
2017-08-19T08:49:54.369Z,87.23
2017-08-19T08:50:54.360Z,89.43
2017-08-19T08:51:54.037Z,88.56
2017-08-19T08:52:54.352Z,89.52
2017-08-19T08:53:54.350Z,89.81
2017-08-19T08:54:54.350Z,89.81
2017-08-19T08:55:54.361Z,89.33
2017-08-19T08:56:54.020Z,88.99
2017-08-19T08:57:54.033Z,86.94
2017-08-19T08:58:54.335Z,87.9
2017-08-19T08:59:54.332Z,89.76
2017-08-19T09:00:54.329Z,88.09
2017-08-19T09:01:54.323Z,88.99
2017-08-19T09:02:54.321Z,88.23
2017-08-19T09:03:54.321Z,89.28
2017-08-19T09:04:54.318Z,90.72
2017-08-19T09:05:53.993Z,89.57
2017-08-19T09:06:53.989Z,87.74
2017-08-19T09:07:54.308Z,86.16
2017-08-19T09:08:54.301Z,85.88
2017-08-19T09:09:54.300Z,85.11
2017-08-19T09:10:54.300Z,86.3
2017-08-19T09:11:53.973Z,84.05
2017-08-19T09:12:54.292Z,85.05
2017-08-19T09:13:54.296Z,85.92
2017-08-19T09:14:54.287Z,85.72
2017-08-19T09:15:53.961Z,84.28
2017-08-19T09:16:54.291Z,83.71
2017-08-19T09:17:54.278Z,84.95
2017-08-19T09:18:54.276Z,83.81
2017-08-19T09:19:54.273Z,84.28
2017-08-19T09:20:54.271Z,84.95
2017-08-19T09:21:54.275Z,85.34
2017-08-19T09:22:53.943Z,85.15
2017-08-19T09:23:54.263Z,84.86
2017-08-19T09:24:54.268Z,85.44
2017-08-19T09:25:54.256Z,85.63
2017-08-19T09:26:53.943Z,86.11
2017-08-19T09:27:54.293Z,85.77
2017-08-19T09:28:54.272Z,83.65
2017-08-19T09:29:53.923Z,82.6
2017-08-19T09:30:54.241Z,82.31
2017-08-19T09:31:54.243Z,81.35
2017-08-19T09:32:53.916Z,79.38
2017-08-19T09:33:53.920Z,77.8
2017-08-19T09:34:53.935Z,77.65
2017-08-19T09:35:54.231Z,75.63
2017-08-19T09:36:54.230Z,71.89
2017-08-19T09:37:54.227Z,73.14
2017-08-19T09:38:53.902Z,75.89
2017-08-19T09:39:54.224Z,74.48
2017-08-19T09:40:54.222Z,75.15
2017-08-19T09:41:53.897Z,75.79
2017-08-19T09:42:53.898Z,74.64
2017-08-19T09:43:54.216Z,75.5
2017-08-19T09:44:53.909Z,75.7
2017-08-19T09:45:53.889Z,75.98
2017-08-19T09:46:54.208Z,76.65
2017-08-19T09:47:53.888Z,75.98
2017-08-19T09:48:54.215Z,76.94
2017-08-19T09:49:54.203Z,75.82
2017-08-19T09:50:54.200Z,75.63
2017-08-19T09:51:53.893Z,75.15
2017-08-19T09:52:54.197Z,78.08
2017-08-19T09:53:53.872Z,75.1
2017-08-19T09:54:54.214Z,71.35
2017-08-19T09:55:54.194Z,71.64
2017-08-19T09:56:53.881Z,69.91
2017-08-19T09:57:54.187Z,70.49
2017-08-19T09:58:53.864Z,72.12
2017-08-19T09:59:54.201Z,73.46
2017-08-19T10:00:54.181Z,72.12
2017-08-19T10:01:54.179Z,73.18
2017-08-19T10:02:54.190Z,71.83
2017-08-19T10:03:54.178Z,71.73
2017-08-19T10:04:54.192Z,71.48
2017-08-19T10:05:54.181Z,69.75
2017-08-19T10:06:54.174Z,68.31
2017-08-19T10:07:53.849Z,68.51
2017-08-19T10:08:54.190Z,67.45
2017-08-19T10:09:54.170Z,70.04
2017-08-19T10:10:53.844Z,72.92
2017-08-19T10:11:53.847Z,73.5
2017-08-19T10:12:53.843Z,73.21
2017-08-19T10:13:54.165Z,70.62
2017-08-19T10:14:54.161Z,69.4
2017-08-19T10:15:54.162Z,69.46
2017-08-19T10:16:53.844Z,71.87
2017-08-19T10:17:54.158Z,73.69
2017-08-19T10:18:53.837Z,71.96
2017-08-19T10:19:54.157Z,71.1
2017-08-19T10:20:54.155Z,71.77
2017-08-19T10:21:53.837Z,72.44
2017-08-19T10:22:53.834Z,72.44
2017-08-19T10:23:53.841Z,71.91
2017-08-19T10:24:53.828Z,72.73
2017-08-19T10:25:54.148Z,71.23
2017-08-19T10:26:54.148Z,71.91
2017-08-19T10:27:54.146Z,68.83
2017-08-19T10:28:54.146Z,69.5
2017-08-19T10:29:54.149Z,71.65
2017-08-19T10:30:54.144Z,69.73
2017-08-19T10:31:53.822Z,68.32
2017-08-19T10:32:54.142Z,67.45
2017-08-19T10:33:54.141Z,66.2
2017-08-19T10:34:53.817Z,67.83
2017-08-19T10:35:53.818Z,65.14
2017-08-19T10:36:54.164Z,64.37
2017-08-19T10:37:54.137Z,66.36
2017-08-19T10:38:54.148Z,66.27
2017-08-19T10:39:53.813Z,64.15
2017-08-19T10:40:54.146Z,64.63
2017-08-19T10:41:54.135Z,66.23
2017-08-19T10:42:54.134Z,67.86
2017-08-19T10:43:54.135Z,69.02
2017-08-19T10:44:54.132Z,71.14
2017-08-19T10:45:54.144Z,67.38
2017-08-19T10:46:53.817Z,66.42
2017-08-19T10:47:53.814Z,66.23
2017-08-19T10:48:53.803Z,67.1
2017-08-19T10:49:53.824Z,67.38
2017-08-19T10:50:54.125Z,68.12
2017-08-19T10:51:54.124Z,69.85
2017-08-19T10:52:54.125Z,70.9
2017-08-19T10:53:54.122Z,70.68
2017-08-19T10:54:53.806Z,67.13
2017-08-19T10:55:53.810Z,67.9
2017-08-19T10:56:54.119Z,67.22
2017-08-19T10:57:54.121Z,67.9
2017-08-19T10:58:54.114Z,69.53
2017-08-19T10:59:54.117Z,69.72
2017-08-19T11:00:53.796Z,66.26
2017-08-19T11:01:54.112Z,68.95
2017-08-19T11:02:54.112Z,65.69
2017-08-19T11:03:54.116Z,64.25
2017-08-19T11:04:53.788Z,62.93
2017-08-19T11:05:53.783Z,64.85
2017-08-19T11:06:53.783Z,62.35
2017-08-19T11:07:54.102Z,62.81
2017-08-19T11:08:53.801Z,65.91
2017-08-19T11:09:53.785Z,65.72
2017-08-19T11:10:53.777Z,65.05
2017-08-19T11:11:54.105Z,65.62
2017-08-19T11:12:54.094Z,62.87
2017-08-19T11:13:54.096Z,62.38
2017-08-19T11:14:53.788Z,63.92
2017-08-19T11:15:54.089Z,64.02
2017-08-19T11:16:53.785Z,61.14
2017-08-19T11:17:54.097Z,59.6
2017-08-19T11:18:54.113Z,60.66
2017-08-19T11:19:54.082Z,63.06
2017-08-19T11:20:54.091Z,64.02
2017-08-19T11:21:54.080Z,61.52
2017-08-19T11:22:53.758Z,64.43
2017-08-19T11:23:54.076Z,62.71
2017-08-19T11:24:54.079Z,61.74
2017-08-19T11:25:54.072Z,58.57
2017-08-19T11:26:54.072Z,58.02
2017-08-19T11:27:54.075Z,58.79
2017-08-19T11:28:54.069Z,56.2
2017-08-19T11:29:54.070Z,59.85
2017-08-19T11:30:54.075Z,58.02
2017-08-19T11:31:53.745Z,54.46
2017-08-19T11:32:53.743Z,55.04
2017-08-19T11:33:54.067Z,57.35
2017-08-19T11:34:54.064Z,55.43
2017-08-19T11:35:54.061Z,55.43
2017-08-19T11:36:53.741Z,54.27
2017-08-19T11:37:54.061Z,54.36
2017-08-19T11:38:54.071Z,54.56
2017-08-19T11:39:53.739Z,56
2017-08-19T11:40:53.742Z,57.06
2017-08-19T11:41:54.060Z,58.31
2017-08-19T11:42:53.734Z,56.55
2017-08-19T11:43:54.058Z,54.05
2017-08-19T11:44:54.057Z,56.16
2017-08-19T11:45:53.733Z,55.88
2017-08-19T11:46:54.055Z,54.69
2017-08-19T11:47:54.053Z,55.27
2017-08-19T11:48:54.054Z,55.37
2017-08-19T11:49:54.066Z,56.78
2017-08-19T11:50:53.739Z,55.66
2017-08-19T11:51:53.728Z,57.87
2017-08-19T11:52:54.049Z,58.15
2017-08-19T11:53:54.048Z,56.14
2017-08-19T11:54:53.732Z,55.56
2017-08-19T11:55:53.734Z,55.27
2017-08-19T11:56:53.724Z,56.71
2017-08-19T11:57:53.724Z,54.89
2017-08-19T11:58:54.059Z,57.87
2017-08-19T11:59:54.043Z,57
2017-08-19T12:00:54.042Z,57.75
2017-08-19T12:01:54.040Z,56.49
2017-08-19T12:02:54.037Z,56.52
2017-08-19T12:03:54.039Z,56.71
2017-08-19T12:04:54.041Z,55.76
2017-08-19T12:05:54.039Z,58.15
2017-08-19T12:06:53.714Z,55.27
2017-08-19T12:07:53.720Z,56.23
2017-08-19T12:08:54.031Z,54.79
2017-08-19T12:09:53.710Z,55.56
2017-08-19T12:10:53.710Z,59.22
2017-08-19T12:11:54.051Z,58.67
2017-08-19T12:12:54.027Z,55.2
2017-08-19T12:13:53.706Z,55.01
2017-08-19T12:14:53.707Z,53.96
2017-08-19T12:15:54.023Z,55.01
2017-08-19T12:16:54.025Z,55.59
2017-08-19T12:17:54.025Z,55.08
2017-08-19T12:18:54.021Z,55.56
2017-08-19T12:19:54.029Z,55.18
2017-08-19T12:20:54.021Z,54.22
2017-08-19T12:21:54.017Z,58.25
2017-08-19T12:22:53.699Z,53.74
2017-08-19T12:23:53.694Z,53.54
2017-08-19T12:24:54.015Z,53.03
2017-08-19T12:25:53.692Z,52.84
2017-08-19T12:26:54.015Z,56.3
2017-08-19T12:27:54.038Z,56.21
2017-08-19T12:28:53.691Z,55.73
2017-08-19T12:29:54.010Z,57.93
2017-08-19T12:30:54.008Z,55.53
2017-08-19T12:31:53.686Z,54.57
2017-08-19T12:32:54.006Z,54.86
2017-08-19T12:33:54.007Z,55.34
2017-08-19T12:34:54.015Z,56.11
2017-08-19T12:35:53.682Z,56.49
2017-08-19T12:36:54.006Z,60.05
2017-08-19T12:37:54.000Z,58.22
2017-08-19T12:38:54.017Z,58.06
2017-08-19T12:39:53.997Z,56.71
2017-08-19T12:40:53.995Z,54.99
2017-08-19T12:41:53.992Z,53.25
2017-08-19T12:42:53.999Z,54.12
2017-08-19T12:43:53.671Z,52.29
2017-08-19T12:44:53.990Z,53.06
2017-08-19T12:45:53.988Z,53.06
2017-08-19T12:46:53.987Z,53.25
2017-08-19T12:47:53.992Z,54.99
2017-08-19T12:48:53.982Z,56.14
2017-08-19T12:49:53.983Z,56.91
2017-08-19T12:50:53.999Z,57.1
2017-08-19T12:51:53.978Z,54.99
2017-08-19T12:52:53.659Z,52.32
2017-08-19T12:53:53.978Z,53.96